createdAt,value
2018-05-17T00:01:08.720Z,17.55
2018-05-17T00:03:36.126Z,17.77
2018-05-17T00:06:04.464Z,18.62
2018-05-17T00:08:31.858Z,17.87
2018-05-17T00:10:59.266Z,18.63
2018-05-17T00:13:26.796Z,18.53
2018-05-17T00:15:54.203Z,18.27
2018-05-17T00:18:21.596Z,19.10
2018-05-17T00:20:49.000Z,19.60
2018-05-17T00:23:17.318Z,19.47
2018-05-17T00:25:44.727Z,19.53
2018-05-17T00:28:12.132Z,17.40
2018-05-17T00:30:39.901Z,19.13
2018-05-17T00:33:07.297Z,18.13
2018-05-17T00:35:35.662Z,18.50
2018-05-17T00:38:03.129Z,19.80
2018-05-17T00:40:30.543Z,17.97
2018-05-17T00:42:57.935Z,18.67
2018-05-17T00:45:25.345Z,18.47
2018-05-17T00:47:52.744Z,17.77
2018-05-17T00:50:20.136Z,16.40
2018-05-17T00:52:59.238Z,18.43
2018-05-17T00:55:26.630Z,19.90
2018-05-17T00:57:54.105Z,20.00
2018-05-17T01:00:21.484Z,19.02
2018-05-17T01:02:48.880Z,17.13
2018-05-17T01:05:16.292Z,21.77
2018-05-17T01:07:43.686Z,22.83
2018-05-17T01:10:11.108Z,18.57
2018-05-17T01:12:39.133Z,19.97
2018-05-17T01:15:07.376Z,21.60
2018-05-17T01:17:35.568Z,22.10
2018-05-17T01:20:02.985Z,25.57
2018-05-17T01:22:30.414Z,23.33
2018-05-17T01:24:57.823Z,26.50
2018-05-17T01:27:25.257Z,25.13
2018-05-17T01:29:52.644Z,28.80
2018-05-17T01:32:20.048Z,29.20
2018-05-17T01:34:47.444Z,24.20
2018-05-17T01:37:26.608Z,29.00
2018-05-17T01:39:54.144Z,29.67
2018-05-17T01:42:21.551Z,31.90
2018-05-17T01:44:48.943Z,31.90
2018-05-17T01:47:16.355Z,33.57
2018-05-17T01:49:43.750Z,33.80
2018-05-17T01:52:11.156Z,36.47
2018-05-17T01:54:39.273Z,35.50
2018-05-17T01:57:06.659Z,40.30
2018-05-17T01:59:34.071Z,39.50
2018-05-17T02:02:01.484Z,39.40
2018-05-17T02:04:28.893Z,37.90
2018-05-17T02:06:56.287Z,39.40
2018-05-17T02:09:23.693Z,37.67
2018-05-17T02:11:51.092Z,39.72
2018-05-17T02:14:18.749Z,41.33
2018-05-17T02:16:46.153Z,44.53
2018-05-17T02:19:13.591Z,40.13
2018-05-17T02:21:41.240Z,38.37
2018-05-17T02:24:08.648Z,43.30
2018-05-17T02:26:36.040Z,41.27
2018-05-17T02:29:03.465Z,40.00
2018-05-17T02:31:30.854Z,39.43
2018-05-17T02:33:58.264Z,41.93
2018-05-17T02:36:25.672Z,43.20
2018-05-17T02:38:53.091Z,44.90
2018-05-17T02:41:20.486Z,39.60
2018-05-17T02:43:47.903Z,41.77
2018-05-17T02:46:15.292Z,39.80
2018-05-17T02:48:42.768Z,37.83
2018-05-17T02:51:10.164Z,36.40
2018-05-17T02:53:37.564Z,37.65
2018-05-17T02:56:04.969Z,35.00
2018-05-17T02:58:32.517Z,33.60
2018-05-17T03:00:59.921Z,33.42
2018-05-17T03:03:27.319Z,34.47
2018-05-17T03:05:54.897Z,33.65
2018-05-17T03:08:22.401Z,32.00
2018-05-17T03:10:49.807Z,32.60
2018-05-17T03:13:17.214Z,30.20
2018-05-17T03:15:44.633Z,30.30
2018-05-17T03:18:12.028Z,30.63
2018-05-17T03:20:39.449Z,28.90
2018-05-17T03:23:06.842Z,32.00
2018-05-17T03:25:34.302Z,26.67
2018-05-17T03:28:01.710Z,24.77
2018-05-17T03:30:29.117Z,27.85
2018-05-17T03:32:56.543Z,24.20
2018-05-17T03:35:24.082Z,25.20
2018-05-17T03:37:51.487Z,25.50
2018-05-17T03:40:18.896Z,25.10
2018-05-17T03:42:46.317Z,26.70
2018-05-17T03:45:14.408Z,23.70
2018-05-17T03:47:41.802Z,24.20
2018-05-17T03:50:09.220Z,24.43
2018-05-17T03:52:36.624Z,22.52
2018-05-17T03:55:04.076Z,22.27
2018-05-17T03:57:31.476Z,22.45
2018-05-17T03:59:59.138Z,22.00
2018-05-17T04:02:38.271Z,22.63
2018-05-17T04:05:17.499Z,23.87
2018-05-17T04:07:45.479Z,25.90
2018-05-17T04:10:12.916Z,30.50
2018-05-17T04:12:43.511Z,34.30
2018-05-17T04:15:11.005Z,38.53
2018-05-17T04:17:38.464Z,35.00
2018-05-17T04:20:05.872Z,41.88
2018-05-17T04:22:33.327Z,42.50
2018-05-17T04:25:00.795Z,39.33
2018-05-17T04:27:28.192Z,38.43
2018-05-17T04:29:55.600Z,44.73
2018-05-17T04:32:23.064Z,41.83
2018-05-17T04:34:50.473Z,39.67
2018-05-17T04:37:17.872Z,43.03
2018-05-17T04:39:45.277Z,44.50
2018-05-17T04:42:12.755Z,42.05
2018-05-17T04:44:40.150Z,39.57
2018-05-17T04:47:07.624Z,38.27
2018-05-17T04:49:35.021Z,39.40
2018-05-17T04:52:02.410Z,40.97
2018-05-17T04:54:29.799Z,43.93
2018-05-17T04:56:57.202Z,41.50
2018-05-17T04:59:25.728Z,43.20
2018-05-17T05:01:53.118Z,44.60
2018-05-17T05:04:20.517Z,45.93
2018-05-17T05:06:47.950Z,43.53
2018-05-17T05:09:15.340Z,47.28
2018-05-17T05:11:42.741Z,49.33
2018-05-17T05:14:10.138Z,46.30
2018-05-17T05:16:37.695Z,49.20
2018-05-17T05:19:05.125Z,46.70
2018-05-17T05:21:32.527Z,54.20
2018-05-17T05:23:59.992Z,54.93
2018-05-17T05:26:27.646Z,48.30
2018-05-17T05:28:55.046Z,55.43
2018-05-17T05:31:22.433Z,50.27
2018-05-17T05:33:49.840Z,50.67
2018-05-17T05:36:17.342Z,53.33
2018-05-17T05:38:44.737Z,53.67
2018-05-17T05:41:12.136Z,52.80
2018-05-17T05:43:39.540Z,59.30
2018-05-17T05:46:06.947Z,55.67
2018-05-17T05:48:34.331Z,55.97
2018-05-17T05:51:01.770Z,51.60
2018-05-17T05:53:29.245Z,55.73
2018-05-17T05:55:56.643Z,56.10
2018-05-17T05:58:24.059Z,54.80
2018-05-17T06:00:52.054Z,50.77
2018-05-17T06:03:19.639Z,44.43
2018-05-17T06:05:47.038Z,45.43
2018-05-17T06:08:14.447Z,44.73
2018-05-17T06:10:41.844Z,43.63
2018-05-17T06:13:09.245Z,44.17
2018-05-17T06:15:36.632Z,43.23
2018-05-17T06:18:04.036Z,47.13
2018-05-17T06:20:32.025Z,48.67
2018-05-17T06:22:59.439Z,44.25
2018-05-17T06:25:26.835Z,46.57
2018-05-17T06:27:54.276Z,40.20
2018-05-17T06:30:21.857Z,45.80
2018-05-17T06:32:49.809Z,44.47
2018-05-17T06:35:17.200Z,39.67
2018-05-17T06:37:44.619Z,39.17
2018-05-17T06:40:12.031Z,37.83
2018-05-17T06:42:39.427Z,37.13
2018-05-17T06:45:06.828Z,35.70
2018-05-17T06:47:34.239Z,33.03
2018-05-17T06:50:01.636Z,31.60
2018-05-17T06:52:29.045Z,27.17
2018-05-17T06:54:56.517Z,25.77
2018-05-17T06:57:24.203Z,27.83
2018-05-17T06:59:51.557Z,27.30
2018-05-17T07:02:18.962Z,28.80
2018-05-17T07:04:46.482Z,23.95
2018-05-17T07:07:13.895Z,22.37
2018-05-17T07:09:41.296Z,23.90
2018-05-17T07:12:08.701Z,22.20
2018-05-17T07:14:36.098Z,24.90
2018-05-17T07:17:03.488Z,29.33
2018-05-17T07:19:30.886Z,29.97
2018-05-17T07:21:58.296Z,29.70
2018-05-17T07:24:25.765Z,28.47
2018-05-17T07:26:53.159Z,28.67
2018-05-17T07:29:21.233Z,29.65
2018-05-17T07:31:48.676Z,29.03
2018-05-17T07:34:16.089Z,31.80
2018-05-17T07:36:43.488Z,32.83
2018-05-17T07:39:11.080Z,36.37
2018-05-17T07:41:38.490Z,41.37
2018-05-17T07:44:05.901Z,40.13
2018-05-17T07:46:33.294Z,42.77
2018-05-17T07:49:01.288Z,43.20
2018-05-17T07:51:28.683Z,45.38
2018-05-17T07:53:56.093Z,45.47
2018-05-17T07:56:23.479Z,49.20
2018-05-17T07:58:50.944Z,51.67
2018-05-17T08:01:18.628Z,46.57
2018-05-17T08:03:46.033Z,47.27
2018-05-17T08:06:13.688Z,46.77
2018-05-17T08:08:41.106Z,48.33
2018-05-17T08:11:08.504Z,45.20
2018-05-17T08:13:35.919Z,44.97
2018-05-17T08:16:03.319Z,41.57
2018-05-17T08:18:30.752Z,42.08
2018-05-17T08:20:58.160Z,40.05
2018-05-17T08:23:25.559Z,39.80
2018-05-17T08:25:53.127Z,40.07
2018-05-17T08:28:20.531Z,37.33
2018-05-17T08:30:47.932Z,38.33
2018-05-17T08:33:15.393Z,38.20
2018-05-17T08:35:42.787Z,35.70
2018-05-17T08:38:10.714Z,33.03
2018-05-17T08:40:38.184Z,36.60
2018-05-17T08:43:05.660Z,36.57
2018-05-17T08:45:33.131Z,36.55
2018-05-17T08:48:00.469Z,34.17
2018-05-17T08:50:27.971Z,35.37
2018-05-17T08:52:55.371Z,37.30
2018-05-17T08:55:23.652Z,36.38
2018-05-17T08:57:51.046Z,37.83
2018-05-17T09:00:18.450Z,35.00
2018-05-17T09:02:45.998Z,34.57
2018-05-17T09:05:13.392Z,31.33
2018-05-17T09:07:40.777Z,30.80
2018-05-17T09:10:08.209Z,30.88
2018-05-17T09:12:35.600Z,30.33
2018-05-17T09:15:03.054Z,31.33
2018-05-17T09:17:30.442Z,29.00
2018-05-17T09:19:57.855Z,29.20
2018-05-17T09:22:25.248Z,28.67
2018-05-17T09:24:52.735Z,29.53
2018-05-17T09:27:20.121Z,27.65
2018-05-17T09:29:47.521Z,27.07
2018-05-17T09:32:14.954Z,27.60
2018-05-17T09:34:42.433Z,26.37
2018-05-17T09:37:09.834Z,29.50
2018-05-17T09:39:37.215Z,28.70
2018-05-17T09:42:04.660Z,29.83
2018-05-17T09:44:32.214Z,28.00
2018-05-17T09:46:59.672Z,27.73
2018-05-17T09:49:27.076Z,28.57
2018-05-17T09:51:55.051Z,29.83
2018-05-17T09:54:22.452Z,32.83
2018-05-17T09:56:49.856Z,28.50
2018-05-17T09:59:17.317Z,29.53
2018-05-17T10:01:44.741Z,28.40
2018-05-17T10:04:12.138Z,29.65
2018-05-17T10:06:39.541Z,29.50
2018-05-17T10:09:07.263Z,30.52
2018-05-17T10:11:34.668Z,30.40
2018-05-17T10:14:02.069Z,30.53
2018-05-17T10:16:29.477Z,27.53
2018-05-17T10:18:57.187Z,27.27
2018-05-17T10:21:24.589Z,27.57
2018-05-17T10:23:51.975Z,29.30
2018-05-17T10:26:19.387Z,29.07
2018-05-17T10:28:46.965Z,25.93
2018-05-17T10:31:14.370Z,29.33
2018-05-17T10:33:41.763Z,26.17
2018-05-17T10:36:09.170Z,25.50
2018-05-17T10:38:37.472Z,28.00
2018-05-17T10:41:04.872Z,26.50
2018-05-17T10:43:32.278Z,27.27
2018-05-17T10:46:01.013Z,28.77
2018-05-17T10:48:28.403Z,26.63
2018-05-17T10:50:56.777Z,25.00
2018-05-17T10:53:24.176Z,25.27
2018-05-17T10:55:57.324Z,26.50
2018-05-17T10:58:24.734Z,25.30
2018-05-17T11:00:52.838Z,26.60
2018-05-17T11:03:20.239Z,28.83
2018-05-17T11:05:47.636Z,29.17
2018-05-17T11:08:15.248Z,24.10
2018-05-17T11:10:42.646Z,27.60
2018-05-17T11:13:10.052Z,26.52
2018-05-17T11:15:37.505Z,28.27
2018-05-17T11:18:06.229Z,27.08
2018-05-17T11:20:33.622Z,30.25
2018-05-17T11:23:01.045Z,25.20
2018-05-17T11:25:28.437Z,26.03
2018-05-17T11:27:55.840Z,28.37
2018-05-17T11:30:23.245Z,23.70
2018-05-17T11:32:50.648Z,26.20
2018-05-17T11:35:18.059Z,23.87
2018-05-17T11:37:45.448Z,28.10
2018-05-17T11:40:12.847Z,26.53
2018-05-17T11:42:40.309Z,25.62
2018-05-17T11:45:07.727Z,28.37
2018-05-17T11:47:35.135Z,27.03
2018-05-17T11:50:02.559Z,24.37
2018-05-17T11:52:29.920Z,25.77
2018-05-17T11:54:57.324Z,29.10
2018-05-17T11:57:24.716Z,25.40
2018-05-17T11:59:52.129Z,24.60
2018-05-17T12:02:19.583Z,23.03
2018-05-17T12:04:46.983Z,22.03
2018-05-17T12:07:14.434Z,21.17
2018-05-17T12:09:41.782Z,21.13
2018-05-17T12:12:09.555Z,22.87
2018-05-17T12:14:36.955Z,21.83
2018-05-17T12:17:04.352Z,22.87
2018-05-17T12:19:31.885Z,21.70
2018-05-17T12:21:59.779Z,23.20
2018-05-17T12:24:27.188Z,21.37
2018-05-17T12:26:54.586Z,22.90
2018-05-17T12:29:22.116Z,20.45
2018-05-17T12:31:49.532Z,20.57
2018-05-17T12:34:16.924Z,22.30
2018-05-17T12:36:44.317Z,24.03
2018-05-17T12:39:11.761Z,22.07
2018-05-17T12:41:39.148Z,23.47
2018-05-17T12:44:06.551Z,20.40
2018-05-17T12:46:34.009Z,24.13
2018-05-17T12:49:01.560Z,19.65
2018-05-17T12:51:28.956Z,22.77
2018-05-17T12:53:56.384Z,19.70
2018-05-17T12:56:23.772Z,18.97
2018-05-17T18:42:50.252Z,15.37
2018-05-17T18:45:17.647Z,16.23
2018-05-17T18:47:45.980Z,15.65
2018-05-17T18:50:13.512Z,16.47
2018-05-17T18:52:40.916Z,15.20
2018-05-17T18:55:08.320Z,14.50
2018-05-17T18:57:35.878Z,15.17
2018-05-17T19:00:03.258Z,13.73
2018-05-17T19:02:30.665Z,15.00
2018-05-17T19:04:58.054Z,16.17
2018-05-17T19:07:25.459Z,15.30
2018-05-17T19:09:52.861Z,15.93
2018-05-17T19:12:20.271Z,16.13
2018-05-17T19:14:47.691Z,15.90
2018-05-17T19:17:15.107Z,15.67
2018-05-17T19:19:42.496Z,18.13
2018-05-17T19:22:09.914Z,16.77
2018-05-17T19:24:37.392Z,18.20
2018-05-17T19:27:05.556Z,17.60
2018-05-17T19:29:32.939Z,16.83
2018-05-17T19:32:00.438Z,18.20
2018-05-17T19:34:31.796Z,16.00
2018-05-17T19:36:59.320Z,18.37
2018-05-17T19:39:27.588Z,19.43
2018-05-17T19:41:55.003Z,19.03
2018-05-17T19:44:22.413Z,18.97
2018-05-17T19:46:49.907Z,20.80
2018-05-17T19:49:17.315Z,20.33
2018-05-17T19:51:45.150Z,20.73
2018-05-17T19:54:12.604Z,20.77
2018-05-17T19:56:40.005Z,21.27
2018-05-17T19:59:07.403Z,20.20
2018-05-17T20:01:34.941Z,19.50
2018-05-17T20:04:02.394Z,20.62
2018-05-17T20:06:29.788Z,17.87
2018-05-17T20:08:57.192Z,18.48
2018-05-17T20:11:24.637Z,20.80
2018-05-17T20:13:52.004Z,21.80
2018-05-17T20:16:20.085Z,20.27
2018-05-17T20:18:47.621Z,21.00
2018-05-17T20:21:14.927Z,22.73
2018-05-17T20:23:42.333Z,23.07
2018-05-17T20:26:09.738Z,21.97
2018-05-17T20:28:37.360Z,20.70
2018-05-17T20:31:04.756Z,24.25
2018-05-17T20:33:32.152Z,23.80
2018-05-17T20:35:59.611Z,22.10
2018-05-17T20:38:27.308Z,24.03
2018-05-17T20:40:54.699Z,22.37
2018-05-17T20:43:22.084Z,21.47
2018-05-17T20:45:50.480Z,24.95
2018-05-17T20:48:17.888Z,24.07
2018-05-17T20:50:45.294Z,24.20
2018-05-17T20:53:12.680Z,22.50
2018-05-17T20:55:40.092Z,23.80
2018-05-17T20:58:07.495Z,22.98
2018-05-17T21:00:34.920Z,21.77
2018-05-17T21:03:02.846Z,25.60
2018-05-17T21:05:30.244Z,25.48
2018-05-17T21:07:57.624Z,23.17
2018-05-17T21:10:25.890Z,23.63
2018-05-17T21:12:53.350Z,25.77
2018-05-17T21:15:21.029Z,22.27
2018-05-17T21:17:48.428Z,24.67
2018-05-17T21:20:15.834Z,22.23
2018-05-17T21:22:43.228Z,22.60
2018-05-17T21:25:10.626Z,25.97
2018-05-17T21:27:38.203Z,25.60
2018-05-17T21:30:05.628Z,23.00
2018-05-17T21:32:33.011Z,23.75
2018-05-17T21:35:00.554Z,25.05
2018-05-17T21:37:27.927Z,22.80
2018-05-17T21:39:55.328Z,24.83
2018-05-17T21:42:22.717Z,25.27
2018-05-17T21:44:50.118Z,22.27
2018-05-17T21:47:17.509Z,24.10
2018-05-17T21:49:44.908Z,23.13
2018-05-17T21:52:12.314Z,23.20
2018-05-17T21:54:39.761Z,23.40
2018-05-17T21:57:07.168Z,25.10
2018-05-17T22:02:38.592Z,24.00
2018-05-17T22:05:06.864Z,22.80
2018-05-17T22:07:34.286Z,23.50
2018-05-17T22:10:01.648Z,20.20
2018-05-17T22:12:29.050Z,21.27
2018-05-17T22:14:56.445Z,21.08
2018-05-17T22:17:23.860Z,21.30
2018-05-17T22:19:51.284Z,20.40
2018-05-17T22:22:18.688Z,22.95
2018-05-17T22:24:46.093Z,22.30
2018-05-17T22:27:13.507Z,23.97
2018-05-17T22:29:40.904Z,22.85
2018-05-17T22:32:08.314Z,25.30
2018-05-17T22:34:35.787Z,24.23
2018-05-17T22:37:03.179Z,23.45
2018-05-17T22:39:30.572Z,23.40
2018-05-17T22:41:58.096Z,24.27
2018-05-17T22:44:25.504Z,19.77
2018-05-17T22:46:53.577Z,21.40
2018-05-17T22:49:21.134Z,21.20
2018-05-17T22:51:48.583Z,19.23
2018-05-17T22:54:15.908Z,20.80
2018-05-17T22:56:55.179Z,20.50
2018-05-17T22:59:22.581Z,20.97
2018-05-17T23:01:50.101Z,21.00
2018-05-17T23:04:17.540Z,20.77
2018-05-17T23:06:44.939Z,21.33
2018-05-17T23:09:12.328Z,19.92
2018-05-17T23:11:39.732Z,16.93
2018-05-17T23:14:07.136Z,18.15
2018-05-17T23:16:34.548Z,19.73
2018-05-17T23:19:02.217Z,17.83
2018-05-17T23:21:29.613Z,17.57
2018-05-17T23:23:57.007Z,17.83
2018-05-17T23:26:24.526Z,17.45
2018-05-17T23:28:51.930Z,18.03
2018-05-17T23:31:19.320Z,20.13
2018-05-17T23:33:46.736Z,18.80
2018-05-17T23:36:14.202Z,23.27
2018-05-17T23:38:41.599Z,21.60
2018-05-17T23:41:20.714Z,21.57
2018-05-17T23:43:48.102Z,21.80
2018-05-17T23:46:16.013Z,24.13
2018-05-17T23:48:43.411Z,23.63
2018-05-17T23:51:10.808Z,22.43
2018-05-17T23:53:38.217Z,21.13
2018-05-17T23:56:05.643Z,22.42
2018-05-17T23:58:33.021Z,23.30
